sensor_id;sensor_type;location;lat;lon;timestamp;temperature;humidity
10336;DHT22;5213;53.548;9.930;2023-06-26T02:37:50;19.50;1.00
10336;DHT22;5213;53.548;9.930;2023-06-26T02:40:15;19.50;1.00
10336;DHT22;5213;53.548;9.930;2023-06-26T02:42:41;19.50;1.00
10336;DHT22;5213;53.548;9.930;2023-06-26T02:45:07;19.50;1.00
10336;DHT22;5213;53.548;9.930;2023-06-26T02:47:33;19.50;1.00
10336;DHT22;5213;53.548;9.930;2023-06-26T02:49:59;19.60;1.00
10336;DHT22;5213;53.548;9.930;2023-06-26T02:52:24;19.50;1.00
10336;DHT22;5213;53.548;9.930;2023-06-26T02:54:50;19.60;1.00
10336;DHT22;5213;53.548;9.930;2023-06-26T02:57:15;19.50;1.00
10336;DHT22;5213;53.548;9.930;2023-06-26T02:59:42;19.50;1.00
10336;DHT22;5213;53.548;9.930;2023-06-26T03:02:08;19.60;1.00
10336;DHT22;5213;53.548;9.930;2023-06-26T03:04:33;19.50;1.00
10336;DHT22;5213;53.548;9.930;2023-06-26T03:07:02;19.60;1.00
10336;DHT22;5213;53.548;9.930;2023-06-26T03:09:28;19.50;1.00
10336;DHT22;5213;53.548;9.930;2023-06-26T03:11:53;19.60;1.00
10336;DHT22;5213;53.548;9.930;2023-06-26T03:14:21;19.60;1.00
10336;DHT22;5213;53.548;9.930;2023-06-26T03:16:46;19.40;1.00
10336;DHT22;5213;53.548;9.930;2023-06-26T03:19:12;19.50;1.00
10336;DHT22;5213;53.548;9.930;2023-06-26T03:21:37;19.70;1.00
10336;DHT22;5213;53.548;9.930;2023-06-26T03:24:03;19.60;1.00
10336;DHT22;5213;53.548;9.930;2023-06-26T03:26:29;19.50;1.00
10336;DHT22;5213;53.548;9.930;2023-06-26T03:28:55;19.50;1.00
10336;DHT22;5213;53.548;9.930;2023-06-26T03:31:20;19.70;1.00
10336;DHT22;5213;53.548;9.930;2023-06-26T03:33:46;19.50;1.00
10336;DHT22;5213;53.548;9.930;2023-06-26T03:36:12;19.50;1.00
10336;DHT22;5213;53.548;9.930;2023-06-26T03:38:38;19.60;1.00
10336;DHT22;5213;53.548;9.930;2023-06-26T03:41:03;19.60;1.00
10336;DHT22;5213;53.548;9.930;2023-06-26T03:43:29;19.60;1.00
10336;DHT22;5213;53.548;9.930;2023-06-26T03:45:55;19.60;1.00
10336;DHT22;5213;53.548;9.930;2023-06-26T03:48:21;19.70;1.00
10336;DHT22;5213;53.548;9.930;2023-06-26T03:50:46;19.70;1.00
10336;DHT22;5213;53.548;9.930;2023-06-26T03:53:12;19.70;1.00
10336;DHT22;5213;53.548;9.930;2023-06-26T03:55:38;19.70;1.00
10336;DHT22;5213;53.548;9.930;2023-06-26T03:58:04;19.70;1.00
10336;DHT22;5213;53.548;9.930;2023-06-26T04:00:30;19.80;1.00
10336;DHT22;5213;53.548;9.930;2023-06-26T04:02:55;19.80;1.00
10336;DHT22;5213;53.548;9.930;2023-06-26T04:05:21;19.90;1.00
10336;DHT22;5213;53.548;9.930;2023-06-26T04:07:50;20.00;1.00
10336;DHT22;5213;53.548;9.930;2023-06-26T04:10:16;20.00;1.00
10336;DHT22;5213;53.548;9.930;2023-06-26T04:12:42;20.20;1.00
10336;DHT22;5213;53.548;9.930;2023-06-26T04:15:08;20.30;1.00
10336;DHT22;5213;53.548;9.930;2023-06-26T04:17:34;20.40;1.00
10336;DHT22;5213;53.548;9.930;2023-06-26T04:19:59;21.00;1.00
10336;DHT22;5213;53.548;9.930;2023-06-26T04:22:25;21.50;1.00
10336;DHT22;5213;53.548;9.930;2023-06-26T04:24:51;22.00;1.00
10336;DHT22;5213;53.548;9.930;2023-06-26T04:27:18;22.40;1.00
10336;DHT22;5213;53.548;9.930;2023-06-26T04:29:43;22.60;1.00
10336;DHT22;5213;53.548;9.930;2023-06-26T04:32:09;23.00;1.00
10336;DHT22;5213;53.548;9.930;2023-06-26T04:34:35;23.00;1.00
10336;DHT22;5213;53.548;9.930;2023-06-26T04:37:02;22.90;1.00
10336;DHT22;5213;53.548;9.930;2023-06-26T04:39:30;22.90;1.00
10336;DHT22;5213;53.548;9.930;2023-06-26T04:41:56;22.90;1.00
10336;DHT22;5213;53.548;9.930;2023-06-26T04:44:21;23.30;1.00
10336;DHT22;5213;53.548;9.930;2023-06-26T04:46:47;23.10;1.00
10336;DHT22;5213;53.548;9.930;2023-06-26T04:49:13;23.10;1.00
10336;DHT22;5213;53.548;9.930;2023-06-26T04:51:38;23.10;1.00
10336;DHT22;5213;53.548;9.930;2023-06-26T04:54:12;23.30;1.00
10336;DHT22;5213;53.548;9.930;2023-06-26T04:56:38;23.40;1.00
10336;DHT22;5213;53.548;9.930;2023-06-26T04:59:05;23.60;1.00
10336;DHT22;5213;53.548;9.930;2023-06-26T05:01:31;23.50;1.00
10336;DHT22;5213;53.548;9.930;2023-06-26T05:03:58;23.80;1.00
10336;DHT22;5213;53.548;9.930;2023-06-26T05:06:23;23.90;1.00
10336;DHT22;5213;53.548;9.930;2023-06-26T05:08:49;23.90;1.00
10336;DHT22;5213;53.548;9.930;2023-06-26T05:11:15;23.80;1.00
10336;DHT22;5213;53.548;9.930;2023-06-26T05:13:41;24.00;1.00
10336;DHT22;5213;53.548;9.930;2023-06-26T05:16:08;23.90;1.00
10336;DHT22;5213;53.548;9.930;2023-06-26T05:18:35;23.90;1.00
10336;DHT22;5213;53.548;9.930;2023-06-26T05:21:02;23.80;1.00
10336;DHT22;5213;53.548;9.930;2023-06-26T05:23:31;23.90;1.00
10336;DHT22;5213;53.548;9.930;2023-06-26T05:25:58;23.80;1.00
10336;DHT22;5213;53.548;9.930;2023-06-26T05:28:24;24.00;1.00
10336;DHT22;5213;53.548;9.930;2023-06-26T05:30:51;23.90;1.00
10336;DHT22;5213;53.548;9.930;2023-06-26T05:33:18;23.90;1.00
10336;DHT22;5213;53.548;9.930;2023-06-26T05:35:45;24.00;1.00
10336;DHT22;5213;53.548;9.930;2023-06-26T05:38:12;24.00;1.00
10336;DHT22;5213;53.548;9.930;2023-06-26T05:40:39;24.10;1.00
10336;DHT22;5213;53.548;9.930;2023-06-26T05:43:06;24.10;1.00
10336;DHT22;5213;53.548;9.930;2023-06-26T05:45:32;24.10;1.00
10336;DHT22;5213;53.548;9.930;2023-06-26T05:47:57;24.10;1.00
10336;DHT22;5213;53.548;9.930;2023-06-26T05:50:23;24.10;1.00
10336;DHT22;5213;53.548;9.930;2023-06-26T05:52:49;24.10;1.00
10336;DHT22;5213;53.548;9.930;2023-06-26T05:55:15;24.00;1.00
10336;DHT22;5213;53.548;9.930;2023-06-26T05:57:41;23.90;1.00
10336;DHT22;5213;53.548;9.930;2023-06-26T06:00:08;23.80;1.00
10336;DHT22;5213;53.548;9.930;2023-06-26T06:02:39;23.90;1.00
10336;DHT22;5213;53.548;9.930;2023-06-26T06:05:05;23.80;1.00
10336;DHT22;5213;53.548;9.930;2023-06-26T06:07:32;23.80;1.00
10336;DHT22;5213;53.548;9.930;2023-06-26T06:09:59;23.70;1.00
10336;DHT22;5213;53.548;9.930;2023-06-26T06:12:25;23.70;1.00
10336;DHT22;5213;53.548;9.930;2023-06-26T06:14:51;24.10;1.00
10336;DHT22;5213;53.548;9.930;2023-06-26T06:17:17;24.20;1.00
10336;DHT22;5213;53.548;9.930;2023-06-26T06:19:43;24.30;1.00
10336;DHT22;5213;53.548;9.930;2023-06-26T06:22:08;24.40;1.00
10336;DHT22;5213;53.548;9.930;2023-06-26T06:24:34;24.50;1.00
10336;DHT22;5213;53.548;9.930;2023-06-26T06:27:00;24.70;1.00
10336;DHT22;5213;53.548;9.930;2023-06-26T06:29:27;24.90;1.00
10336;DHT22;5213;53.548;9.930;2023-06-26T06:31:52;24.80;1.00
10336;DHT22;5213;53.548;9.930;2023-06-26T06:34:18;24.90;1.00
10336;DHT22;5213;53.548;9.930;2023-06-26T06:36:43;25.00;1.00
10336;DHT22;5213;53.548;9.930;2023-06-26T06:39:09;25.10;1.00
10336;DHT22;5213;53.548;9.930;2023-06-26T06:41:34;25.10;1.00
10336;DHT22;5213;53.548;9.930;2023-06-26T06:44:00;25.20;1.00
10336;DHT22;5213;53.548;9.930;2023-06-26T06:46:26;25.40;1.00
10336;DHT22;5213;53.548;9.930;2023-06-26T06:48:53;25.50;1.00
10336;DHT22;5213;53.548;9.930;2023-06-26T06:51:18;25.60;1.00
10336;DHT22;5213;53.548;9.930;2023-06-26T06:53:44;25.60;1.00
10336;DHT22;5213;53.548;9.930;2023-06-26T06:56:09;25.70;1.00
10336;DHT22;5213;53.548;9.930;2023-06-26T06:58:35;25.70;1.00
10336;DHT22;5213;53.548;9.930;2023-06-26T07:01:01;25.70;1.00
10336;DHT22;5213;53.548;9.930;2023-06-26T07:03:28;25.70;1.00
10336;DHT22;5213;53.548;9.930;2023-06-26T07:08:20;25.80;1.00
10336;DHT22;5213;53.548;9.930;2023-06-26T07:13:11;26.40;1.00
10336;DHT22;5213;53.548;9.930;2023-06-26T07:15:37;26.30;1.00
10336;DHT22;5213;53.548;9.930;2023-06-26T07:18:02;26.30;1.00
10336;DHT22;5213;53.548;9.930;2023-06-26T07:32:38;26.90;1.00
10336;DHT22;5213;53.548;9.930;2023-06-26T07:35:06;27.20;1.00
10336;DHT22;5213;53.548;9.930;2023-06-26T07:42:24;27.40;1.00
10336;DHT22;5213;53.548;9.930;2023-06-26T07:44:49;27.80;99.90
10336;DHT22;5213;53.548;9.930;2023-06-26T07:49:41;28.00;1.00
10336;DHT22;5213;53.548;9.930;2023-06-26T10:48:57;20.40;93.00
10336;DHT22;5213;53.548;9.930;2023-06-26T10:51:24;20.50;78.80
10336;DHT22;5213;53.548;9.930;2023-06-26T10:53:57;20.80;40.80
10336;DHT22;5213;53.548;9.930;2023-06-26T10:56:55;21.00;23.10
10336;DHT22;5213;53.548;9.930;2023-06-26T10:59:25;21.50;2.00
10336;DHT22;5213;53.548;9.930;2023-06-26T11:02:01;21.90;1.00
10336;DHT22;5213;53.548;9.930;2023-06-26T11:04:50;22.30;1.00
10336;DHT22;5213;53.548;9.930;2023-06-26T11:07:25;22.40;1.00
10336;DHT22;5213;53.548;9.930;2023-06-26T11:09:59;23.20;1.00
10336;DHT22;5213;53.548;9.930;2023-06-26T11:12:38;23.20;1.00
10336;DHT22;5213;53.548;9.930;2023-06-26T11:15:08;23.10;1.00
10336;DHT22;5213;53.548;9.930;2023-06-26T11:17:35;22.90;1.00
10336;DHT22;5213;53.548;9.930;2023-06-26T11:20:03;22.70;1.00
10336;DHT22;5213;53.548;9.930;2023-06-26T11:22:30;22.50;1.00
10336;DHT22;5213;53.548;9.930;2023-06-26T11:24:59;23.00;1.00
10336;DHT22;5213;53.548;9.930;2023-06-26T11:27:52;23.50;1.00
10336;DHT22;5213;53.548;9.930;2023-06-26T11:30:26;23.50;1.00
10336;DHT22;5213;53.548;9.930;2023-06-26T11:32:52;23.80;1.00
10336;DHT22;5213;53.548;9.930;2023-06-26T11:35:25;23.60;1.00
10336;DHT22;5213;53.548;9.930;2023-06-26T11:37:59;23.20;1.00
10336;DHT22;5213;53.548;9.930;2023-06-26T11:40:27;23.40;1.00
10336;DHT22;5213;53.548;9.930;2023-06-26T11:42:55;23.00;1.00
10336;DHT22;5213;53.548;9.930;2023-06-26T11:45:21;23.40;1.00
10336;DHT22;5213;53.548;9.930;2023-06-26T11:47:47;23.50;1.00
10336;DHT22;5213;53.548;9.930;2023-06-26T11:50:16;23.50;1.00
10336;DHT22;5213;53.548;9.930;2023-06-26T11:52:43;23.70;1.00
10336;DHT22;5213;53.548;9.930;2023-06-26T11:55:09;23.70;1.00
10336;DHT22;5213;53.548;9.930;2023-06-26T11:57:36;23.40;1.00
10336;DHT22;5213;53.548;9.930;2023-06-26T12:00:15;23.10;1.00
10336;DHT22;5213;53.548;9.930;2023-06-26T12:02:42;22.70;1.00
10336;DHT22;5213;53.548;9.930;2023-06-26T12:05:08;23.20;1.00
10336;DHT22;5213;53.548;9.930;2023-06-26T12:07:34;23.10;1.00
10336;DHT22;5213;53.548;9.930;2023-06-26T12:10:02;23.30;1.00
10336;DHT22;5213;53.548;9.930;2023-06-26T12:12:29;23.40;1.00
10336;DHT22;5213;53.548;9.930;2023-06-26T12:14:57;23.50;1.00
10336;DHT22;5213;53.548;9.930;2023-06-26T12:17:23;23.70;1.00
10336;DHT22;5213;53.548;9.930;2023-06-26T12:19:50;23.70;1.00
10336;DHT22;5213;53.548;9.930;2023-06-26T12:22:19;23.30;1.00
10336;DHT22;5213;53.548;9.930;2023-06-26T12:24:46;23.50;1.00
10336;DHT22;5213;53.548;9.930;2023-06-26T12:27:13;23.20;1.00
10336;DHT22;5213;53.548;9.930;2023-06-26T12:29:42;23.00;1.00
10336;DHT22;5213;53.548;9.930;2023-06-26T12:32:09;23.50;1.00
10336;DHT22;5213;53.548;9.930;2023-06-26T12:34:37;23.90;1.00
10336;DHT22;5213;53.548;9.930;2023-06-26T12:37:10;23.70;1.00
10336;DHT22;5213;53.548;9.930;2023-06-26T12:39:49;23.90;1.00
10336;DHT22;5213;53.548;9.930;2023-06-26T12:42:22;23.40;1.00
10336;DHT22;5213;53.548;9.930;2023-06-26T12:44:49;23.30;1.00
10336;DHT22;5213;53.548;9.930;2023-06-26T12:47:16;23.40;1.00
10336;DHT22;5213;53.548;9.930;2023-06-26T12:49:44;23.80;1.00
10336;DHT22;5213;53.548;9.930;2023-06-26T12:52:12;24.10;1.00
10336;DHT22;5213;53.548;9.930;2023-06-26T12:54:42;24.10;1.00
10336;DHT22;5213;53.548;9.930;2023-06-26T12:57:09;23.90;1.00
10336;DHT22;5213;53.548;9.930;2023-06-26T12:59:38;23.70;1.00
10336;DHT22;5213;53.548;9.930;2023-06-26T13:02:04;23.50;1.00
10336;DHT22;5213;53.548;9.930;2023-06-26T13:04:30;23.60;1.00
10336;DHT22;5213;53.548;9.930;2023-06-26T13:06:56;23.60;99.90
10336;DHT22;5213;53.548;9.930;2023-06-26T13:09:23;23.70;99.90
10336;DHT22;5213;53.548;9.930;2023-06-26T13:11:49;23.70;99.90
10336;DHT22;5213;53.548;9.930;2023-06-26T13:14:15;23.60;99.90
10336;DHT22;5213;53.548;9.930;2023-06-26T13:16:41;23.70;99.90
10336;DHT22;5213;53.548;9.930;2023-06-26T13:24:02;23.70;1.00
10336;DHT22;5213;53.548;9.930;2023-06-26T13:26:32;24.30;1.00
10336;DHT22;5213;53.548;9.930;2023-06-26T18:51:00;19.20;1.00
10336;DHT22;5213;53.548;9.930;2023-06-26T18:53:25;19.10;1.00
10336;DHT22;5213;53.548;9.930;2023-06-26T18:55:51;19.10;1.00
10336;DHT22;5213;53.548;9.930;2023-06-26T18:58:16;19.00;1.00
10336;DHT22;5213;53.548;9.930;2023-06-26T19:00:42;18.80;1.00
10336;DHT22;5213;53.548;9.930;2023-06-26T19:03:08;18.90;1.00
10336;DHT22;5213;53.548;9.930;2023-06-26T19:05:34;18.70;1.00
10336;DHT22;5213;53.548;9.930;2023-06-26T19:07:59;18.80;1.00
10336;DHT22;5213;53.548;9.930;2023-06-26T19:10:25;18.50;1.00
10336;DHT22;5213;53.548;9.930;2023-06-26T19:12:51;18.30;1.00
10336;DHT22;5213;53.548;9.930;2023-06-26T19:15:19;18.20;1.00
10336;DHT22;5213;53.548;9.930;2023-06-26T19:17:45;18.20;1.00
10336;DHT22;5213;53.548;9.930;2023-06-26T19:20:11;18.10;1.00
10336;DHT22;5213;53.548;9.930;2023-06-26T19:22:37;18.00;1.00
10336;DHT22;5213;53.548;9.930;2023-06-26T19:25:03;18.10;1.00
10336;DHT22;5213;53.548;9.930;2023-06-26T19:27:29;17.90;1.00
10336;DHT22;5213;53.548;9.930;2023-06-26T19:29:55;18.00;1.00
10336;DHT22;5213;53.548;9.930;2023-06-26T19:32:20;17.80;1.00
10336;DHT22;5213;53.548;9.930;2023-06-26T19:34:46;17.70;1.00
10336;DHT22;5213;53.548;9.930;2023-06-26T19:37:12;17.80;1.00
10336;DHT22;5213;53.548;9.930;2023-06-26T19:39:38;17.70;1.00
10336;DHT22;5213;53.548;9.930;2023-06-26T19:42:04;17.70;1.00
10336;DHT22;5213;53.548;9.930;2023-06-26T19:44:30;17.60;1.00
10336;DHT22;5213;53.548;9.930;2023-06-26T19:46:56;17.60;1.00
10336;DHT22;5213;53.548;9.930;2023-06-26T19:49:22;17.60;1.00
10336;DHT22;5213;53.548;9.930;2023-06-26T19:51:49;17.60;1.00
10336;DHT22;5213;53.548;9.930;2023-06-26T19:54:14;17.90;1.00
10336;DHT22;5213;53.548;9.930;2023-06-26T19:56:40;17.60;1.00
10336;DHT22;5213;53.548;9.930;2023-06-26T19:59:06;17.80;1.00
10336;DHT22;5213;53.548;9.930;2023-06-26T20:01:32;17.70;1.00
10336;DHT22;5213;53.548;9.930;2023-06-26T20:03:58;17.80;1.00
10336;DHT22;5213;53.548;9.930;2023-06-26T20:06:36;17.80;1.00
10336;DHT22;5213;53.548;9.930;2023-06-26T20:09:02;17.70;1.00
10336;DHT22;5213;53.548;9.930;2023-06-26T20:11:28;17.60;1.00
10336;DHT22;5213;53.548;9.930;2023-06-26T20:13:53;17.60;1.00
10336;DHT22;5213;53.548;9.930;2023-06-26T20:16:19;17.70;1.00
10336;DHT22;5213;53.548;9.930;2023-06-26T20:18:45;17.50;1.00
10336;DHT22;5213;53.548;9.930;2023-06-26T20:21:12;17.40;1.00
10336;DHT22;5213;53.548;9.930;2023-06-26T20:23:37;17.30;1.00
10336;DHT22;5213;53.548;9.930;2023-06-26T20:26:03;17.50;1.00
10336;DHT22;5213;53.548;9.930;2023-06-26T20:28:28;17.40;1.00
10336;DHT22;5213;53.548;9.930;2023-06-26T20:30:54;17.60;1.00
10336;DHT22;5213;53.548;9.930;2023-06-26T20:33:20;17.50;1.00
10336;DHT22;5213;53.548;9.930;2023-06-26T20:35:45;17.60;1.00
10336;DHT22;5213;53.548;9.930;2023-06-26T20:38:11;17.60;1.00
10336;DHT22;5213;53.548;9.930;2023-06-26T20:40:37;17.60;1.00
10336;DHT22;5213;53.548;9.930;2023-06-26T20:43:03;17.30;1.00
10336;DHT22;5213;53.548;9.930;2023-06-26T20:45:29;17.30;1.00
10336;DHT22;5213;53.548;9.930;2023-06-26T20:47:55;17.10;1.00
10336;DHT22;5213;53.548;9.930;2023-06-26T20:50:21;17.00;1.00
10336;DHT22;5213;53.548;9.930;2023-06-26T20:52:48;16.90;1.00
10336;DHT22;5213;53.548;9.930;2023-06-26T20:55:15;16.90;1.00
10336;DHT22;5213;53.548;9.930;2023-06-26T20:57:41;16.80;1.00
10336;DHT22;5213;53.548;9.930;2023-06-26T21:00:07;16.70;1.00
10336;DHT22;5213;53.548;9.930;2023-06-26T21:02:33;16.80;1.00
10336;DHT22;5213;53.548;9.930;2023-06-26T21:05:02;16.90;1.00
10336;DHT22;5213;53.548;9.930;2023-06-26T21:07:28;16.70;1.00
10336;DHT22;5213;53.548;9.930;2023-06-26T21:09:54;16.70;1.00
10336;DHT22;5213;53.548;9.930;2023-06-26T21:12:21;16.70;1.00
10336;DHT22;5213;53.548;9.930;2023-06-26T21:14:47;16.80;1.00
10336;DHT22;5213;53.548;9.930;2023-06-26T21:17:13;16.60;1.00
10336;DHT22;5213;53.548;9.930;2023-06-26T21:19:39;16.60;1.00
10336;DHT22;5213;53.548;9.930;2023-06-26T21:22:05;16.60;1.00
10336;DHT22;5213;53.548;9.930;2023-06-26T21:24:30;16.50;1.00
10336;DHT22;5213;53.548;9.930;2023-06-26T21:26:56;16.70;1.00
10336;DHT22;5213;53.548;9.930;2023-06-26T21:29:21;16.50;1.00
10336;DHT22;5213;53.548;9.930;2023-06-26T21:31:47;16.60;1.00
10336;DHT22;5213;53.548;9.930;2023-06-26T21:34:13;16.40;1.00
10336;DHT22;5213;53.548;9.930;2023-06-26T21:36:39;16.40;1.00
10336;DHT22;5213;53.548;9.930;2023-06-26T21:39:04;16.30;1.00
10336;DHT22;5213;53.548;9.930;2023-06-26T21:41:31;16.30;1.00
10336;DHT22;5213;53.548;9.930;2023-06-26T21:43:56;16.30;1.00
10336;DHT22;5213;53.548;9.930;2023-06-26T21:46:22;16.20;1.00
10336;DHT22;5213;53.548;9.930;2023-06-26T21:48:48;16.10;1.00
10336;DHT22;5213;53.548;9.930;2023-06-26T21:51:13;16.20;1.00
10336;DHT22;5213;53.548;9.930;2023-06-26T21:53:39;16.20;1.00
10336;DHT22;5213;53.548;9.930;2023-06-26T21:56:04;16.30;1.00
10336;DHT22;5213;53.548;9.930;2023-06-26T21:58:30;16.20;1.00
10336;DHT22;5213;53.548;9.930;2023-06-26T22:00:55;16.10;1.00
10336;DHT22;5213;53.548;9.930;2023-06-26T22:03:21;16.10;1.00
10336;DHT22;5213;53.548;9.930;2023-06-26T22:05:47;16.00;1.00
10336;DHT22;5213;53.548;9.930;2023-06-26T22:08:12;16.10;1.00
10336;DHT22;5213;53.548;9.930;2023-06-26T22:10:38;16.00;1.00
10336;DHT22;5213;53.548;9.930;2023-06-26T22:13:03;15.90;1.00
10336;DHT22;5213;53.548;9.930;2023-06-26T22:15:30;16.20;1.00
10336;DHT22;5213;53.548;9.930;2023-06-26T22:17:56;15.90;1.00
10336;DHT22;5213;53.548;9.930;2023-06-26T22:20:23;15.90;1.00
10336;DHT22;5213;53.548;9.930;2023-06-26T22:22:49;16.00;1.00
10336;DHT22;5213;53.548;9.930;2023-06-26T22:25:15;15.90;1.00
10336;DHT22;5213;53.548;9.930;2023-06-26T22:27:46;16.10;1.00
10336;DHT22;5213;53.548;9.930;2023-06-26T22:30:13;15.90;1.00
10336;DHT22;5213;53.548;9.930;2023-06-26T22:32:39;15.80;1.00
10336;DHT22;5213;53.548;9.930;2023-06-26T22:35:05;15.90;1.00
10336;DHT22;5213;53.548;9.930;2023-06-26T22:37:31;15.70;1.00
10336;DHT22;5213;53.548;9.930;2023-06-26T22:39:57;15.90;1.00
10336;DHT22;5213;53.548;9.930;2023-06-26T22:42:22;15.70;1.00
10336;DHT22;5213;53.548;9.930;2023-06-26T22:44:48;15.60;1.00
10336;DHT22;5213;53.548;9.930;2023-06-26T22:47:14;15.80;1.00
10336;DHT22;5213;53.548;9.930;2023-06-26T22:49:39;15.60;1.00
10336;DHT22;5213;53.548;9.930;2023-06-26T22:52:05;15.60;1.00
10336;DHT22;5213;53.548;9.930;2023-06-26T22:54:31;15.40;1.00
10336;DHT22;5213;53.548;9.930;2023-06-26T22:57:01;15.50;1.00
10336;DHT22;5213;53.548;9.930;2023-06-26T22:59:27;15.30;1.00
10336;DHT22;5213;53.548;9.930;2023-06-26T23:01:52;15.30;1.00
10336;DHT22;5213;53.548;9.930;2023-06-26T23:04:18;15.50;1.00
10336;DHT22;5213;53.548;9.930;2023-06-26T23:06:44;15.40;1.00
10336;DHT22;5213;53.548;9.930;2023-06-26T23:09:10;15.30;1.00
10336;DHT22;5213;53.548;9.930;2023-06-26T23:11:37;15.40;1.00
10336;DHT22;5213;53.548;9.930;2023-06-26T23:14:03;15.70;1.00
10336;DHT22;5213;53.548;9.930;2023-06-26T23:16:28;15.60;1.00
10336;DHT22;5213;53.548;9.930;2023-06-26T23:18:54;15.40;1.00
10336;DHT22;5213;53.548;9.930;2023-06-26T23:21:20;15.50;1.00
10336;DHT22;5213;53.548;9.930;2023-06-26T23:23:49;15.30;1.00
10336;DHT22;5213;53.548;9.930;2023-06-26T23:26:22;15.30;1.00
10336;DHT22;5213;53.548;9.930;2023-06-26T23:28:48;15.30;1.00
10336;DHT22;5213;53.548;9.930;2023-06-26T23:31:14;15.30;1.00
10336;DHT22;5213;53.548;9.930;2023-06-26T23:33:42;15.30;1.00
10336;DHT22;5213;53.548;9.930;2023-06-26T23:36:17;15.60;1.00
10336;DHT22;5213;53.548;9.930;2023-06-26T23:38:42;15.30;1.00
10336;DHT22;5213;53.548;9.930;2023-06-26T23:41:14;15.10;1.00
10336;DHT22;5213;53.548;9.930;2023-06-26T23:43:40;15.10;1.00
10336;DHT22;5213;53.548;9.930;2023-06-26T23:46:07;15.10;1.00
10336;DHT22;5213;53.548;9.930;2023-06-26T23:48:39;15.10;1.00
10336;DHT22;5213;53.548;9.930;2023-06-26T23:51:05;15.20;1.00
10336;DHT22;5213;53.548;9.930;2023-06-26T23:53:32;15.20;1.00
10336;DHT22;5213;53.548;9.930;2023-06-26T23:55:57;15.30;1.00
10336;DHT22;5213;53.548;9.930;2023-06-26T23:58:25;15.40;1.00
